Menifee, Arkansas
Current Conditions -  °F | °C
As of 9:58 AM on Sunday 23 Nov 2014 (Local Time) from KLRF Reporting Station
Heavy Rain Heavy Rain  
Wind Chill: 59°   Ceiling: 300
Heat Index: 59°   Visibility: 1.2mi
Dew Point: 59°   Wind: 5mph
Humidity: 99%   Direction: 130°SE
Pressure: 29.56"   Gusts: NA
Location:  35.15°N, 92.55°W
Report Text: KLRF 231558Z AUTO 13004KT 1 1/4SM +RA BR OVC003 15/15 A2956 RMK AO2 VIS 1 1/4V3 SLP012 P0016 T01490148
Loading
Personal Weather Stations






























Interactive Weather Map New forecast layout! Learn more

10-Day Weather Forecast

Advertisements
Track Severe Weather on mobile